createdAt,value
2018-03-23T00:02:03.091Z,8.09
2018-03-23T00:06:03.548Z,10.13
2018-03-23T00:12:04.167Z,9.8
2018-03-23T00:18:05.016Z,8.65
2018-03-23T00:22:05.622Z,9.93
2018-03-23T00:28:06.353Z,6.29
2018-03-23T00:32:06.943Z,8.98
2018-03-23T00:38:15.387Z,7.71
2018-03-23T00:44:16.127Z,6.83
2018-03-23T00:48:16.884Z,9.97
2018-03-23T00:54:17.392Z,6.39
2018-03-23T00:58:17.973Z,7.96
2018-03-23T01:04:18.749Z,4.66
2018-03-23T01:10:19.200Z,6.18
2018-03-23T01:14:19.871Z,9.74
2018-03-23T01:20:20.376Z,6.83
2018-03-23T01:24:21.025Z,8.58
2018-03-23T01:30:21.852Z,8.83
2018-03-23T01:36:22.351Z,6.49
2018-03-23T01:40:23.098Z,8.36
2018-03-23T01:46:23.704Z,6.68
2018-03-23T01:50:24.302Z,7.95
2018-03-23T01:52:24.800Z,7.96
2018-03-23T01:56:25.363Z,9.27
2018-03-23T02:02:26.072Z,6.7
2018-03-23T02:06:26.588Z,9.02
2018-03-23T02:12:27.201Z,7.1
2018-03-23T02:16:27.774Z,12.05
2018-03-23T02:18:28.255Z,6.57
2018-03-23T02:22:29.309Z,7.63
2018-03-23T02:28:30.280Z,5.58
2018-03-23T02:32:30.846Z,4.9
2018-03-23T02:38:31.545Z,6.35
2018-03-23T02:42:32.110Z,5.92
2018-03-23T02:44:32.709Z,7.36
2018-03-23T02:48:33.361Z,7.2
2018-03-23T02:54:34.026Z,6.62
2018-03-23T02:58:34.549Z,6.44
2018-03-23T03:04:35.336Z,5.54
2018-03-23T03:10:35.939Z,5.81
2018-03-23T03:14:36.545Z,7.3
2018-03-23T03:20:37.111Z,4.3
2018-03-23T03:24:37.846Z,6.68
2018-03-23T03:30:38.393Z,7.71
2018-03-23T03:36:38.976Z,6.69
2018-03-23T03:40:39.471Z,10.2
2018-03-23T03:46:40.022Z,4.52
2018-03-23T03:50:40.521Z,6.51
2018-03-23T03:56:41.004Z,6.39
2018-03-23T04:02:41.591Z,4.59
2018-03-23T04:06:42.221Z,4.44
2018-03-23T04:12:43.103Z,6.47
2018-03-23T04:16:43.714Z,7.29
2018-03-23T04:18:44.198Z,4.18
2018-03-23T04:22:44.906Z,5.77
2018-03-23T04:28:45.447Z,7.57
2018-03-23T04:32:46.094Z,6.41
2018-03-23T04:38:46.668Z,5.17
2018-03-23T04:42:47.231Z,8.09
2018-03-23T04:44:47.845Z,7.15
2018-03-23T04:48:48.428Z,8.49
2018-03-23T04:54:49.040Z,5.29
2018-03-23T04:58:49.670Z,9.21
2018-03-23T05:04:50.189Z,7.36
2018-03-23T05:08:50.781Z,7.32
2018-03-23T05:10:51.300Z,6.63
2018-03-23T05:14:51.989Z,6.38
2018-03-23T05:20:52.714Z,6.72
2018-03-23T05:24:53.258Z,8.74
2018-03-23T05:30:53.949Z,7.97
2018-03-23T05:36:54.578Z,10.21
2018-03-23T05:40:55.200Z,9.39
2018-03-23T05:46:55.748Z,8.21
2018-03-23T05:50:56.442Z,10.36
2018-03-23T05:56:56.982Z,9.72
2018-03-23T06:03:02.243Z,7.15
2018-03-23T06:07:02.911Z,9.16
2018-03-23T06:13:03.493Z,6.43
2018-03-23T06:17:04.140Z,7.04
2018-03-23T06:23:04.964Z,7.43
2018-03-23T06:29:05.562Z,6.34
2018-03-23T06:33:06.122Z,7.95
2018-03-23T06:39:06.812Z,6.41
2018-03-23T06:43:07.393Z,8.54
2018-03-23T06:49:08.010Z,8.21
2018-03-23T06:55:08.555Z,6.19
2018-03-23T06:59:09.089Z,6.7
2018-03-23T07:05:09.652Z,5.56
2018-03-23T07:09:10.210Z,6.17
2018-03-23T07:11:10.785Z,8.46
2018-03-23T07:15:11.707Z,6.74
2018-03-23T07:21:12.185Z,5.85
2018-03-23T07:25:12.872Z,6.66
2018-03-23T07:31:13.438Z,7.01
2018-03-23T07:35:14.276Z,6.48
2018-03-23T07:37:15.029Z,6.17
2018-03-23T07:41:15.806Z,7.82
2018-03-23T07:47:16.356Z,8.3
2018-03-23T07:51:16.968Z,6.96
2018-03-23T07:57:17.823Z,7.83
2018-03-23T08:01:18.303Z,8.73
2018-03-23T08:03:18.885Z,8.68
2018-03-23T08:07:19.449Z,8.08
2018-03-23T08:13:20.047Z,5.02
2018-03-23T08:17:20.636Z,8.35
2018-03-23T08:23:21.188Z,8.12
2018-03-23T08:29:21.719Z,6.49
2018-03-23T08:33:25.369Z,8.19
2018-03-23T08:39:25.890Z,5.95
2018-03-23T08:43:26.616Z,7.65
2018-03-23T08:49:27.335Z,5.6
2018-03-23T08:55:28.002Z,8.1
2018-03-23T08:59:28.777Z,7.98
2018-03-23T09:05:29.399Z,5.06
2018-03-23T09:09:29.976Z,7.48
2018-03-23T09:15:31.146Z,8.22
2018-03-23T09:21:31.576Z,4.73
2018-03-23T09:25:32.270Z,9.3
2018-03-23T09:31:32.903Z,7.28
2018-03-23T09:35:33.959Z,6.83
2018-03-23T09:37:34.814Z,5.72
2018-03-23T09:41:35.298Z,6.73
2018-03-23T09:47:35.966Z,5
2018-03-23T09:51:36.619Z,7.19
2018-03-23T09:57:37.136Z,8.04
2018-03-23T10:01:37.565Z,8.52
2018-03-23T10:03:38.231Z,8.36
2018-03-23T10:07:38.834Z,8.79
2018-03-23T10:13:39.431Z,5.89
2018-03-23T10:17:40.043Z,7.43
2018-03-23T10:23:40.626Z,6.32
2018-03-23T10:27:41.125Z,6.56
2018-03-23T10:29:41.676Z,4.95
2018-03-23T10:33:42.269Z,7.28
2018-03-23T10:39:42.817Z,5.79
2018-03-23T10:43:43.396Z,6.63
2018-03-23T10:49:43.940Z,7.17
2018-03-23T10:55:44.577Z,7.39
2018-03-23T10:59:45.505Z,8.32
2018-03-23T11:05:46.046Z,4.76
2018-03-23T11:09:46.737Z,7.95
2018-03-23T11:15:47.294Z,6.45
2018-03-23T11:21:47.817Z,11.48
2018-03-23T11:25:51.336Z,9.12
2018-03-23T11:31:51.856Z,7.46
2018-03-23T11:35:52.704Z,7.83
2018-03-23T11:41:53.219Z,7.43
2018-03-23T11:47:53.873Z,5.75
2018-03-23T11:51:57.382Z,8.28
2018-03-23T11:57:57.998Z,9.93
2018-03-23T12:01:58.650Z,8.79
2018-03-23T12:07:59.360Z,8.56
2018-03-23T12:13:59.981Z,6.43
2018-03-23T12:18:03.158Z,8
2018-03-23T12:24:03.927Z,7.56
2018-03-23T12:28:04.602Z,7.01
2018-03-23T12:34:08.306Z,9.26
2018-03-23T12:40:08.904Z,6.01
2018-03-23T12:44:09.767Z,7.6
2018-03-23T12:50:13.353Z,5.46
2018-03-23T12:54:13.919Z,7.62
2018-03-23T13:00:14.811Z,8.14
2018-03-23T13:06:15.448Z,6.49
2018-03-23T13:10:16.025Z,6.68
2018-03-23T13:16:18.053Z,5.8
2018-03-23T13:20:21.996Z,5.98
2018-03-23T13:26:22.668Z,6.84
2018-03-23T13:32:23.988Z,4.76
2018-03-23T13:36:28.841Z,6.44
2018-03-23T13:42:29.769Z,5.72
2018-03-23T13:46:30.431Z,6.72
2018-03-23T13:52:31.478Z,5.09
2018-03-23T13:58:32.313Z,6.99
2018-03-23T14:02:32.696Z,8.16
2018-03-23T14:08:34.072Z,7.34
2018-03-23T14:12:34.888Z,8.93
2018-03-23T14:18:36.473Z,6.89
2018-03-23T14:24:36.382Z,9.76
2018-03-23T14:28:36.898Z,8.47
2018-03-23T14:34:37.465Z,5.31
2018-03-23T14:38:41.173Z,6.31
2018-03-23T14:40:41.711Z,7.29
2018-03-23T14:44:42.233Z,6.75
2018-03-23T14:50:42.792Z,5.14
2018-03-23T14:54:46.392Z,5.96
2018-03-23T15:00:46.918Z,6.31
2018-03-23T15:04:47.537Z,6.15
2018-03-23T15:06:51.715Z,5.77
2018-03-23T15:10:52.650Z,7.78
2018-03-23T15:16:58.550Z,10.23
2018-03-23T15:21:02.148Z,8.25
2018-03-23T15:27:02.798Z,6.96
2018-03-23T15:31:03.342Z,5.37
2018-03-23T15:37:03.912Z,6.56
2018-03-23T15:43:09.244Z,6.44
2018-03-23T15:47:13.095Z,6.24
2018-03-23T15:53:13.713Z,7.23
2018-03-23T15:57:14.546Z,7.32
2018-03-23T16:03:15.108Z,20.89
2018-03-23T16:09:15.671Z,4.97
2018-03-23T16:13:16.207Z,5.68
2018-03-23T16:19:16.733Z,6.26
2018-03-23T16:23:17.243Z,6.88
2018-03-23T16:29:17.710Z,13.92
2018-03-23T16:35:18.306Z,5.12
2018-03-23T16:45:20.399Z,5.29
2018-03-23T16:45:20.549Z,5.24
2018-03-23T16:49:20.949Z,8.21
2018-03-23T16:51:21.405Z,4.47
2018-03-23T16:55:21.952Z,5.27
2018-03-23T17:01:22.684Z,8.28
2018-03-23T17:05:23.320Z,6.58
2018-03-23T17:11:23.945Z,7.73
2018-03-23T17:15:25.078Z,6.58
2018-03-23T17:17:25.687Z,7.38
2018-03-23T17:21:26.278Z,8.31
2018-03-23T17:27:26.898Z,6.54
2018-03-23T17:31:27.463Z,6.96
2018-03-23T17:37:28.023Z,9.72
2018-03-23T17:41:28.569Z,8.33
2018-03-23T17:43:29.251Z,6.61
2018-03-23T17:47:29.895Z,9.32
2018-03-23T17:53:30.576Z,10.92
2018-03-23T17:57:31.295Z,11.62
2018-03-23T18:03:31.760Z,7.75
2018-03-23T18:07:32.327Z,7.54
2018-03-23T18:09:32.811Z,7.79
2018-03-23T18:13:33.265Z,7.41
2018-03-23T18:19:33.797Z,8.4
2018-03-23T18:23:34.323Z,6.74
2018-03-23T18:29:34.931Z,6.18
2018-03-23T18:35:35.666Z,7.06
2018-03-23T18:39:36.210Z,6.78
2018-03-23T18:45:36.777Z,9.97
2018-03-23T18:49:42.873Z,10.34
2018-03-23T18:55:43.478Z,9.16
2018-03-23T19:01:44.317Z,9.07
2018-03-23T19:05:49.647Z,9.28
2018-03-23T19:11:50.276Z,7.28
2018-03-23T19:15:50.910Z,10.02
2018-03-23T19:21:51.386Z,8.65
2018-03-23T19:27:51.983Z,8.42
2018-03-23T19:31:52.634Z,9.89
2018-03-23T19:37:53.485Z,10.51
2018-03-23T19:41:54.067Z,13.61
2018-03-23T19:47:54.698Z,17.16
2018-03-23T19:53:55.337Z,10.75
2018-03-23T19:57:56.027Z,13.67
2018-03-23T20:03:56.679Z,12.23
2018-03-23T20:07:57.199Z,13.96
2018-03-23T20:13:57.727Z,15.68
2018-03-23T20:19:58.243Z,10.07
2018-03-23T20:23:59.025Z,12.21
2018-03-23T20:29:59.504Z,11.66
2018-03-23T20:33:59.946Z,12.81
2018-03-23T20:36:00.380Z,13.01
2018-03-23T20:40:00.848Z,17.47
2018-03-23T20:46:01.469Z,14.73
2018-03-23T20:50:02.017Z,16.63
2018-03-23T20:56:02.489Z,15.27
2018-03-23T21:00:03.191Z,14.84
2018-03-23T21:02:03.511Z,14
2018-03-23T21:06:04.136Z,14.18
2018-03-23T21:12:04.746Z,15.95
2018-03-23T21:16:05.780Z,15.73
2018-03-23T21:22:06.343Z,12.23
2018-03-23T21:28:06.915Z,14.88
2018-03-23T21:32:07.533Z,14.81
2018-03-23T21:38:08.061Z,10.15
2018-03-23T21:42:08.559Z,13.77
2018-03-23T21:48:09.170Z,15.82
2018-03-23T21:54:09.739Z,12.99
2018-03-23T21:58:10.261Z,13.14
2018-03-23T22:04:10.844Z,12.9
2018-03-23T22:08:11.495Z,14.52
2018-03-23T22:14:12.011Z,14.94
2018-03-23T22:20:12.448Z,12.51
2018-03-23T22:24:13.031Z,17.34
2018-03-23T22:30:13.769Z,15.85
2018-03-23T22:34:14.186Z,16.47
2018-03-23T22:36:14.732Z,12.67
2018-03-23T22:40:15.521Z,17.03
2018-03-23T22:46:16.155Z,12.59
2018-03-23T22:50:16.670Z,14.59
2018-03-23T22:56:17.240Z,10.36
2018-03-23T23:00:17.981Z,14.05
2018-03-23T23:02:18.493Z,11.34
2018-03-23T23:06:19.054Z,14.04
2018-03-23T23:12:19.683Z,12.97
2018-03-23T23:16:20.227Z,12.79
2018-03-23T23:22:20.926Z,11.8
2018-03-23T23:26:21.444Z,13.9
2018-03-23T23:28:21.952Z,9.71
2018-03-23T23:32:22.684Z,11.55
2018-03-23T23:38:23.218Z,7.78
2018-03-23T23:42:23.810Z,9.97
2018-03-23T23:48:24.401Z,8.39
2018-03-23T23:54:24.970Z,11.25
